Time;durP1;ratioP1;P1;durP2;ratioP2;P2;SDS_P1;SDS_P2;PMS_P1;PMS_P2;Temp;Humidity;BMP_temperature;BMP_pressure;BME280_temperature;BME280_humidity;BME280_pressure;Samples;Min_cycle;Max_cycle;Signal;HPM_P1;HPM_P2
2022/04/29 00:02:10;;;;;;;7.35;4.32;;;20.50;58.80;;;;;;5009302;28;92726;-64
2022/04/29 00:04:39;;;;;;;5.15;3.83;;;20.50;58.40;;;;;;5015384;28;94156;-64
2022/04/29 00:07:06;;;;;;;4.55;3.88;;;20.50;58.90;;;;;;5017977;28;91956;-63
2022/04/29 00:09:33;;;;;;;4.97;3.75;;;20.40;59.30;;;;;;5022300;28;93494;-64
2022/04/29 00:12:02;;;;;;;5.88;3.90;;;20.50;58.80;;;;;;5020660;28;96423;-63
2022/04/29 00:14:29;;;;;;;4.72;3.67;;;20.40;58.70;;;;;;5022308;28;92236;-63
2022/04/29 00:16:54;;;;;;;3.85;3.25;;;20.40;58.80;;;;;;5022045;28;92447;-64
2022/04/29 00:19:20;;;;;;;4.00;3.60;;;20.50;58.80;;;;;;5022645;28;93032;-63
2022/04/29 00:21:46;;;;;;;4.18;3.60;;;20.40;58.80;;;;;;5022544;28;92776;-64
2022/04/29 00:24:12;;;;;;;5.60;3.90;;;20.40;59.40;;;;;;5020831;28;91955;-63
2022/04/29 00:26:39;;;;;;;4.65;3.72;;;20.40;59.20;;;;;;5022653;28;91937;-64
2022/04/29 00:29:05;;;;;;;5.82;4.30;;;20.40;58.80;;;;;;5021628;28;94031;-63
2022/04/29 00:31:32;;;;;;;3.65;3.28;;;20.40;58.60;;;;;;5022684;28;94183;-63
2022/04/29 00:33:58;;;;;;;4.43;3.63;;;20.40;58.80;;;;;;5023118;28;91916;-63
2022/04/29 00:36:24;;;;;;;6.97;4.10;;;20.40;58.70;;;;;;5022179;28;91871;-64
2022/04/29 00:38:50;;;;;;;4.68;3.67;;;20.40;58.80;;;;;;5021807;28;93037;-63
2022/04/29 00:41:17;;;;;;;4.75;3.80;;;20.40;58.80;;;;;;5022069;28;92673;-63
2022/04/29 00:43:42;;;;;;;5.05;3.17;;;20.40;58.80;;;;;;5021644;28;91850;-63
2022/04/29 00:46:08;;;;;;;3.78;3.20;;;20.40;58.80;;;;;;5021620;28;91817;-63
2022/04/29 00:48:34;;;;;;;3.60;3.30;;;20.40;58.80;;;;;;5021767;28;93310;-63
2022/04/29 00:51:00;;;;;;;4.90;3.60;;;20.40;58.90;;;;;;5021611;28;93207;-64
2022/04/29 00:53:28;;;;;;;3.78;3.28;;;20.40;58.90;;;;;;5021491;28;92888;-64
2022/04/29 00:55:55;;;;;;;5.63;3.75;;;20.40;58.80;;;;;;5022113;28;91908;-64
2022/04/29 00:58:37;;;;;;;4.60;3.38;;;20.40;58.70;;;;;;5020423;28;96727;-64
2022/04/29 01:01:04;;;;;;;4.20;3.30;;;20.40;58.80;;;;;;5022059;28;92317;-64
2022/04/29 01:03:31;;;;;;;4.25;3.85;;;20.40;58.60;;;;;;5020550;28;92237;-64
2022/04/29 01:05:58;;;;;;;5.55;3.55;;;20.40;58.70;;;;;;5021047;28;92454;-63
2022/04/29 01:08:23;;;;;;;3.90;3.55;;;20.30;58.60;;;;;;5021927;28;93183;-64
2022/04/29 01:10:49;;;;;;;4.78;3.60;;;20.30;58.50;;;;;;5021022;28;94908;-64
2022/04/29 01:13:16;;;;;;;3.78;3.28;;;20.40;58.70;;;;;;5021808;28;92503;-64
2022/04/29 01:15:43;;;;;;;7.38;3.70;;;20.30;58.80;;;;;;5019986;28;92590;-64
2022/04/29 01:18:09;;;;;;;4.13;3.72;;;20.30;58.70;;;;;;5017697;28;96405;-64
2022/04/29 01:20:36;;;;;;;4.07;3.60;;;20.30;58.80;;;;;;5012295;28;96891;-64
2022/04/29 01:23:06;;;;;;;4.15;3.58;;;20.30;58.70;;;;;;5008857;28;93413;-64
2022/04/29 01:25:32;;;;;;;4.72;3.42;;;20.30;58.60;;;;;;5018041;28;91948;-64
2022/04/29 01:27:58;;;;;;;4.55;3.60;;;20.30;58.70;;;;;;5017203;28;93000;-63
2022/04/29 01:30:24;;;;;;;5.43;3.67;;;20.30;58.60;;;;;;5016642;28;92978;-63
2022/04/29 01:32:53;;;;;;;4.20;3.20;;;20.30;58.60;;;;;;5018583;28;91955;-63
2022/04/29 01:35:19;;;;;;;3.95;3.28;;;20.30;58.60;;;;;;5018722;28;91238;-64
2022/04/29 01:37:45;;;;;;;4.00;3.47;;;20.30;58.50;;;;;;5016021;28;93479;-64
2022/04/29 01:40:16;;;;;;;4.43;3.40;;;20.30;58.40;;;;;;5016928;28;92354;-63
2022/04/29 01:42:42;;;;;;;4.65;3.60;;;20.30;58.70;;;;;;5016517;28;93218;-63
2022/04/29 01:45:09;;;;;;;4.97;3.45;;;20.30;58.60;;;;;;5017254;28;92529;-63
2022/04/29 01:47:34;;;;;;;3.65;3.35;;;20.30;58.50;;;;;;5017566;28;92981;-63
2022/04/29 01:50:01;;;;;;;4.53;3.30;;;20.30;58.50;;;;;;5017320;28;92296;-63
2022/04/29 01:52:26;;;;;;;4.30;3.45;;;20.30;58.60;;;;;;5018498;28;91987;-64
2022/04/29 01:54:52;;;;;;;4.25;3.38;;;20.30;58.60;;;;;;5018086;28;92469;-64
2022/04/29 01:57:18;;;;;;;4.03;3.63;;;20.30;58.60;;;;;;5017249;28;93216;-64
2022/04/29 01:59:43;;;;;;;3.97;3.58;;;20.30;58.60;;;;;;5017816;28;92924;-63
2022/04/29 02:02:09;;;;;;;4.72;3.67;;;20.30;58.40;;;;;;5140956;22;92411;-67
2022/04/29 02:04:36;;;;;;;4.13;3.35;;;20.30;58.60;;;;;;5036275;28;92003;-67
2022/04/29 02:07:02;;;;;;;3.60;3.10;;;20.30;58.60;;;;;;5034352;28;97072;-67
2022/04/29 02:09:28;;;;;;;4.10;3.70;;;20.20;58.50;;;;;;5030380;27;94001;-67
2022/04/29 02:12:06;;;;;;;3.72;3.25;;;20.30;58.60;;;;;;5018394;28;92422;-67
2022/04/29 02:14:32;;;;;;;3.65;3.10;;;20.20;58.60;;;;;;5016227;28;92876;-67
2022/04/29 02:16:58;;;;;;;4.95;3.58;;;20.30;58.60;;;;;;5017081;28;92967;-67
2022/04/29 02:19:25;;;;;;;4.60;3.42;;;20.20;58.60;;;;;;5010609;28;93241;-67
2022/04/29 02:21:51;;;;;;;3.28;2.97;;;20.20;58.50;;;;;;5035554;27;92885;-67
2022/04/29 02:24:18;;;;;;;3.78;3.40;;;20.20;58.70;;;;;;5037954;28;91225;-67
2022/04/29 02:26:43;;;;;;;4.70;3.40;;;20.20;58.70;;;;;;5036749;28;93211;-67
2022/04/29 02:29:09;;;;;;;3.33;3.03;;;20.30;58.60;;;;;;5034152;27;92280;-67
2022/04/29 02:31:34;;;;;;;4.68;3.80;;;20.20;58.60;;;;;;5010062;28;93485;-67
2022/04/29 02:34:00;;;;;;;3.53;3.22;;;20.20;58.70;;;;;;5024562;28;92035;-67
2022/04/29 02:36:26;;;;;;;3.42;3.13;;;20.20;58.50;;;;;;5020387;28;93482;-67
2022/04/29 02:38:52;;;;;;;4.88;3.42;;;20.20;58.40;;;;;;5016527;28;92359;-67
2022/04/29 02:41:17;;;;;;;3.15;2.75;;;20.20;58.40;;;;;;5021830;28;92116;-67
2022/04/29 02:43:44;;;;;;;4.68;3.25;;;20.20;58.60;;;;;;5034685;28;92024;-67
2022/04/29 02:46:10;;;;;;;3.92;3.33;;;20.20;58.50;;;;;;5035966;27;93036;-67
2022/04/29 02:48:35;;;;;;;3.53;2.90;;;20.20;58.50;;;;;;5035721;28;95595;-68
2022/04/29 02:51:04;;;;;;;3.83;3.50;;;20.20;58.50;;;;;;5037267;27;91893;-67
2022/04/29 02:53:30;;;;;;;3.53;2.88;;;20.20;58.60;;;;;;5021433;27;92029;-66
2022/04/29 02:55:58;;;;;;;4.28;3.47;;;20.20;58.50;;;;;;5034286;28;95879;-67
2022/04/29 02:58:24;;;;;;;4.38;3.45;;;20.20;58.50;;;;;;5036807;27;93760;-67
2022/04/29 03:00:49;;;;;;;4.55;3.15;;;20.20;58.50;;;;;;5037083;27;91847;-66
2022/04/29 03:03:15;;;;;;;3.28;2.95;;;20.20;58.60;;;;;;5035307;28;92035;-66
2022/04/29 03:05:41;;;;;;;3.53;3.22;;;20.20;58.40;;;;;;5035530;27;92640;-67
2022/04/29 03:08:07;;;;;;;3.92;3.17;;;20.20;59.00;;;;;;5035341;28;92478;-66
2022/04/29 03:10:34;;;;;;;3.78;3.35;;;20.10;58.40;;;;;;5035963;28;92436;-67
2022/04/29 03:13:00;;;;;;;3.50;3.20;;;20.20;58.50;;;;;;5036956;27;91616;-67
2022/04/29 03:15:26;;;;;;;4.10;3.33;;;20.20;58.50;;;;;;5035942;28;92929;-67
2022/04/29 03:20:39;;;;;;;3.83;3.20;;;20.10;58.30;;;;;;5036702;28;93273;-67
2022/04/29 03:23:05;;;;;;;2.90;2.67;;;20.20;58.40;;;;;;5021067;27;92324;-67
2022/04/29 03:25:31;;;;;;;4.07;3.15;;;20.10;58.20;;;;;;5016604;28;93477;-66
2022/04/29 03:27:57;;;;;;;4.32;3.33;;;20.20;58.30;;;;;;5016505;28;92707;-67
2022/04/29 03:30:23;;;;;;;3.80;3.05;;;20.10;58.40;;;;;;5017043;28;92336;-67
2022/04/29 03:32:54;;;;;;;3.42;3.13;;;20.10;58.30;;;;;;5016555;28;92088;-66
2022/04/29 03:35:20;;;;;;;3.72;3.28;;;20.10;58.40;;;;;;5014656;28;97027;-66
2022/04/29 03:37:46;;;;;;;3.25;2.95;;;20.10;58.50;;;;;;5016813;28;92853;-67
2022/04/29 03:40:14;;;;;;;3.10;2.90;;;20.10;58.50;;;;;;5017578;28;92609;-66
2022/04/29 03:42:39;;;;;;;3.55;3.10;;;20.10;58.40;;;;;;5015637;28;92034;-67
2022/04/29 03:45:06;;;;;;;3.80;2.95;;;20.10;58.40;;;;;;5015264;28;94023;-66
2022/04/29 03:47:31;;;;;;;3.40;3.10;;;20.10;58.30;;;;;;5014155;28;95040;-67
2022/04/29 03:49:57;;;;;;;3.40;2.90;;;20.10;58.50;;;;;;5015973;28;92003;-67
2022/04/29 03:52:23;;;;;;;3.60;3.13;;;20.10;58.30;;;;;;5016657;28;92123;-66
2022/04/29 03:54:48;;;;;;;3.58;3.17;;;20.10;58.50;;;;;;5016582;28;92193;-67
2022/04/29 03:57:14;;;;;;;3.30;3.00;;;20.10;58.40;;;;;;5016866;28;92570;-66
2022/04/29 03:59:39;;;;;;;3.92;2.95;;;20.10;58.20;;;;;;5016092;28;92345;-67
2022/04/29 04:02:08;;;;;;;3.30;3.00;;;20.10;58.40;;;;;;5015880;28;91604;-66
2022/04/29 04:04:34;;;;;;;3.20;2.88;;;20.10;59.00;;;;;;5015247;28;92570;-67
2022/04/29 04:07:02;;;;;;;3.47;3.13;;;20.10;58.30;;;;;;5015167;28;92953;-67
2022/04/29 04:09:28;;;;;;;4.80;3.20;;;20.10;58.20;;;;;;5015639;28;93652;-67
2022/04/29 04:11:54;;;;;;;3.75;2.95;;;20.10;58.20;;;;;;5015488;28;92427;-67
2022/04/29 04:14:19;;;;;;;3.40;3.10;;;20.10;58.20;;;;;;5014975;28;93202;-67
2022/04/29 04:16:46;;;;;;;3.38;3.08;;;20.10;58.20;;;;;;5015231;28;92260;-67
2022/04/29 04:19:12;;;;;;;4.65;3.35;;;20.10;58.20;;;;;;5016503;28;91978;-67
2022/04/29 04:21:39;;;;;;;3.15;2.83;;;20.10;58.20;;;;;;5015857;28;91981;-66
2022/04/29 04:24:05;;;;;;;3.88;2.90;;;20.10;58.20;;;;;;5019069;28;92619;-67
2022/04/29 04:26:32;;;;;;;4.30;3.30;;;20.10;58.20;;;;;;5035073;27;92395;-67
2022/04/29 04:28:58;;;;;;;4.53;2.97;;;20.10;58.20;;;;;;5035425;27;92155;-67
2022/04/29 04:31:24;;;;;;;3.05;2.75;;;20.10;58.20;;;;;;5035909;27;91875;-67
2022/04/29 04:33:50;;;;;;;3.58;3.17;;;20.00;58.10;;;;;;5007756;28;94084;-67
2022/04/29 04:36:17;;;;;;;3.25;2.92;;;20.10;58.00;;;;;;5034150;28;93668;-67
2022/04/29 04:38:44;;;;;;;3.17;2.88;;;20.10;58.00;;;;;;5035648;28;92412;-67
2022/04/29 04:41:10;;;;;;;3.30;3.00;;;20.00;58.20;;;;;;5035576;28;92429;-66
2022/04/29 04:43:36;;;;;;;2.97;2.70;;;20.00;58.20;;;;;;5033627;27;93090;-66
2022/04/29 04:46:03;;;;;;;4.07;3.20;;;20.00;58.20;;;;;;5033844;28;92744;-67
2022/04/29 04:48:28;;;;;;;3.85;3.03;;;20.00;58.10;;;;;;5035452;27;91881;-67
2022/04/29 04:50:54;;;;;;;3.63;3.00;;;20.00;58.70;;;;;;5035617;28;91228;-67
2022/04/29 04:53:20;;;;;;;3.42;3.13;;;20.00;58.10;;;;;;5036659;27;92540;-67
2022/04/29 04:55:47;;;;;;;3.60;2.80;;;20.00;58.10;;;;;;5036049;28;95706;-66
2022/04/29 04:58:13;;;;;;;3.17;2.88;;;20.00;58.10;;;;;;5038026;27;93320;-67
2022/04/29 05:00:39;;;;;;;3.92;3.05;;;20.00;58.20;;;;;;5038487;27;91980;-67
2022/04/29 05:03:07;;;;;;;3.05;2.85;;;20.00;58.10;;;;;;5032782;28;92609;-67
2022/04/29 05:05:33;;;;;;;4.78;3.20;;;20.00;58.20;;;;;;5034521;28;92047;-67
2022/04/29 05:07:59;;;;;;;3.40;2.85;;;20.00;58.30;;;;;;5037373;28;91974;-67
2022/04/29 05:10:25;;;;;;;4.32;3.00;;;20.00;58.20;;;;;;5038247;28;92418;-67
2022/04/29 05:12:51;;;;;;;3.10;2.80;;;20.00;58.30;;;;;;5037949;28;92832;-67
2022/04/29 05:15:17;;;;;;;3.67;2.58;;;20.00;58.10;;;;;;5035910;28;95828;-67
2022/04/29 05:17:43;;;;;;;3.20;2.90;;;20.00;58.10;;;;;;5037333;28;92091;-67
2022/04/29 05:20:16;;;;;;;3.15;2.83;;;20.00;58.10;;;;;;5019557;27;91990;-67
2022/04/29 05:22:43;;;;;;;3.30;3.00;;;20.00;58.00;;;;;;5016190;28;95264;-67
2022/04/29 05:25:09;;;;;;;3.58;3.17;;;20.00;58.20;;;;;;5018367;28;93707;-66
2022/04/29 05:27:36;;;;;;;3.70;2.80;;;20.00;58.10;;;;;;5017402;28;92005;-67
2022/04/29 05:30:02;;;;;;;2.95;2.53;;;20.00;58.30;;;;;;5036018;28;91977;-67
2022/04/29 05:32:29;;;;;;;3.67;3.15;;;20.00;58.20;;;;;;5036658;28;96122;-67
2022/04/29 05:34:55;;;;;;;3.25;2.95;;;20.00;58.10;;;;;;5037962;28;92898;-66
2022/04/29 05:37:21;;;;;;;3.90;3.20;;;20.00;58.00;;;;;;5036829;28;91973;-67
2022/04/29 05:42:31;;;;;;;4.22;3.22;;;20.00;58.00;;;;;;5038021;28;92185;-67
2022/04/29 05:44:57;;;;;;;3.63;2.58;;;20.00;58.10;;;;;;5037542;28;92362;-67
2022/04/29 05:47:22;;;;;;;3.42;3.13;;;20.00;58.10;;;;;;5036368;28;93497;-67
2022/04/29 05:49:48;;;;;;;2.72;2.50;;;20.00;58.20;;;;;;5035348;28;92989;-66
2022/04/29 05:52:14;;;;;;;5.88;3.00;;;20.00;58.00;;;;;;5024857;28;92666;-67
2022/04/29 05:54:39;;;;;;;5.75;2.40;;;20.00;58.10;;;;;;5017152;28;94333;-67
2022/04/29 05:57:05;;;;;;;4.60;2.65;;;20.00;58.40;;;;;;5019129;28;91947;-66
2022/04/29 05:59:31;;;;;;;3.50;2.42;;;20.00;58.40;;;;;;5018480;28;91902;-68
2022/04/29 06:01:57;;;;;;;7.13;3.05;;;20.00;58.50;;;;;;5018199;28;92977;-67
2022/04/29 06:04:23;;;;;;;4.82;2.72;;;20.00;58.30;;;;;;5017782;28;92872;-67
2022/04/29 06:06:49;;;;;;;4.07;3.20;;;20.00;58.50;;;;;;5018412;28;91916;-67
2022/04/29 06:09:15;;;;;;;5.05;2.88;;;20.00;58.50;;;;;;5017776;28;92103;-67
2022/04/29 06:11:41;;;;;;;5.68;2.72;;;20.00;58.40;;;;;;5015595;28;93984;-67
2022/04/29 06:14:09;;;;;;;3.60;2.88;;;20.00;58.40;;;;;;5007681;28;96773;-67
2022/04/29 06:16:34;;;;;;;3.92;2.67;;;20.00;58.50;;;;;;5035972;27;92022;-67
2022/04/29 06:19:00;;;;;;;7.63;3.33;;;20.00;58.60;;;;;;5037956;28;92457;-67
2022/04/29 06:21:26;;;;;;;3.10;2.80;;;20.00;59.10;;;;;;5037335;28;92840;-66
2022/04/29 06:23:52;;;;;;;12.77;3.05;;;20.00;59.50;;;;;;5012308;27;92427;-66
2022/04/29 06:26:18;;;;;;;7.53;3.67;;;20.00;59.00;;;;;;5021113;28;92084;-66
2022/04/29 06:28:43;;;;;;;3.95;3.45;;;20.00;58.30;;;;;;5018472;28;91206;-66
2022/04/29 06:31:10;;;;;;;4.35;3.45;;;20.00;58.60;;;;;;5024156;28;93163;-66
2022/04/29 06:33:38;;;;;;;9.00;3.08;;;20.10;58.50;;;;;;5017554;28;92442;-68
2022/04/29 06:36:04;;;;;;;6.88;3.08;;;20.10;58.90;;;;;;5017394;28;93002;-67
2022/04/29 06:38:30;;;;;;;5.38;3.13;;;20.10;59.00;;;;;;5017453;28;92061;-66
2022/04/29 06:40:57;;;;;;;7.50;2.92;;;20.10;59.10;;;;;;5017213;28;93193;-66
2022/04/29 06:43:25;;;;;;;8.40;3.13;;;20.10;59.10;;;;;;5017972;28;92207;-67
2022/04/29 06:45:50;;;;;;;4.78;3.50;;;20.10;59.20;;;;;;5018235;28;92041;-66
2022/04/29 06:48:16;;;;;;;10.88;3.03;;;20.10;59.30;;;;;;5017737;28;92314;-67
2022/04/29 06:50:42;;;;;;;6.43;3.35;;;20.10;59.00;;;;;;5005311;28;93963;-66
2022/04/29 06:53:08;;;;;;;6.47;2.65;;;20.10;59.00;;;;;;5020382;28;94138;-65
2022/04/29 06:55:38;;;;;;;6.95;3.03;;;20.10;59.20;;;;;;5032864;27;92234;-67
2022/04/29 06:58:03;;;;;;;;;;;20.10;58.90;;;;;;5036283;28;92196;-66
2022/04/29 07:00:29;;;;;;;4.53;3.08;;;20.10;59.10;;;;;;5030944;28;93549;-66
2022/04/29 07:02:56;;;;;;;4.85;2.88;;;20.10;59.00;;;;;;5014788;28;93744;-66
2022/04/29 07:05:23;;;;;;;5.65;3.25;;;20.10;58.90;;;;;;5015608;28;91978;-67
2022/04/29 07:07:49;;;;;;;9.98;3.10;;;20.10;59.00;;;;;;5003098;27;92427;-66
2022/04/29 07:10:15;;;;;;;7.53;3.20;;;20.10;59.00;;;;;;5032639;27;92599;-66
2022/04/29 07:12:46;;;;;;;8.95;3.30;;;20.20;59.30;;;;;;5025631;28;96308;-67
2022/04/29 07:15:14;;;;;;;7.15;3.50;;;20.10;59.20;;;;;;5035078;27;91979;-67
2022/04/29 07:17:41;;;;;;;9.23;3.90;;;20.20;59.40;;;;;;5033221;28;91372;-66
2022/04/29 07:20:11;;;;;;;9.93;3.90;;;20.10;59.20;;;;;;5015953;28;92803;-67
2022/04/29 07:22:38;;;;;;;31.63;5.43;;;20.20;59.20;;;;;;5015049;28;96024;-67
2022/04/29 07:25:09;;;;;;;20.67;5.07;;;20.20;59.10;;;;;;5016949;28;92897;-66
2022/04/29 07:27:35;;;;;;;16.48;4.50;;;20.20;59.60;;;;;;5016791;28;92103;-66
2022/04/29 07:30:03;;;;;;;23.10;6.15;;;20.20;59.60;;;;;;5014379;28;93872;-66
2022/04/29 07:32:28;;;;;;;22.77;6.40;;;20.20;59.60;;;;;;5034359;28;92912;-66
2022/04/29 07:43:14;;;;;;;33.97;9.73;;;20.20;58.00;;;;;;5014633;28;92034;-67
2022/04/29 07:45:42;;;;;;;34.70;10.77;;;20.20;58.90;;;;;;5008811;28;92321;-67
2022/04/29 07:48:08;;;;;;;35.97;10.77;;;20.20;58.60;;;;;;5013622;28;92444;-66
2022/04/29 07:50:35;;;;;;;36.88;10.90;;;20.20;58.00;;;;;;5013220;28;94742;-66
2022/04/29 07:53:01;;;;;;;40.50;11.20;;;20.20;57.50;;;;;;5022215;28;97427;-66
2022/04/29 07:55:27;;;;;;;40.15;11.38;;;20.20;56.90;;;;;;5011856;28;92161;-66
2022/04/29 07:57:53;;;;;;;46.80;11.98;;;20.20;56.40;;;;;;5021290;28;92336;-67
2022/04/29 08:00:19;;;;;;;37.35;10.93;;;20.20;57.30;;;;;;5014619;28;92540;-65
2022/04/29 08:02:45;;;;;;;39.63;10.80;;;20.20;57.50;;;;;;5014180;28;93231;-65
2022/04/29 08:05:11;;;;;;;38.53;10.57;;;20.20;57.50;;;;;;5014553;28;91993;-67
2022/04/29 08:07:37;;;;;;;38.42;10.80;;;20.30;57.60;;;;;;5014449;28;91453;-67
2022/04/29 08:10:04;;;;;;;35.13;11.00;;;20.20;57.40;;;;;;5011251;28;93342;-66
2022/04/29 08:12:30;;;;;;;36.75;9.77;;;20.20;57.60;;;;;;5008995;28;96378;-67
2022/04/29 08:14:56;;;;;;;34.33;9.93;;;20.20;57.70;;;;;;5014042;28;93421;-66
2022/04/29 08:17:23;;;;;;;36.88;10.48;;;20.20;57.90;;;;;;5013545;28;92563;-66
2022/04/29 08:19:49;;;;;;;29.58;9.20;;;20.20;58.20;;;;;;5009978;28;93177;-67
2022/04/29 08:22:16;;;;;;;29.67;9.70;;;20.20;58.20;;;;;;5020017;28;96421;-67
2022/04/29 08:24:42;;;;;;;34.00;9.98;;;20.20;58.30;;;;;;5010664;28;91975;-67
2022/04/29 08:27:08;;;;;;;26.45;9.43;;;20.20;58.30;;;;;;5014563;28;92343;-67
2022/04/29 08:29:33;;;;;;;20.88;7.80;;;20.20;58.50;;;;;;5017764;28;93087;-67
2022/04/29 08:31:59;;;;;;;22.33;8.38;;;20.30;59.30;;;;;;5018468;28;92154;-66
2022/04/29 08:34:25;;;;;;;18.45;7.63;;;20.20;58.80;;;;;;5019231;28;92376;-67
2022/04/29 08:36:51;;;;;;;16.48;7.13;;;20.30;59.00;;;;;;5015721;28;92309;-67
2022/04/29 08:39:17;;;;;;;23.73;6.72;;;20.30;59.10;;;;;;5035361;28;97124;-66
2022/04/29 08:41:43;;;;;;;28.90;8.40;;;20.30;58.70;;;;;;5037817;27;92505;-66
2022/04/29 08:44:13;;;;;;;23.27;8.93;;;20.30;57.60;;;;;;5020553;27;92592;-66
2022/04/29 08:46:40;;;;;;;26.45;8.48;;;20.30;57.70;;;;;;5018900;28;92524;-66
2022/04/29 08:49:07;;;;;;;21.90;8.15;;;20.30;57.30;;;;;;5017947;28;95950;-67
2022/04/29 08:51:36;;;;;;;25.40;8.60;;;20.30;58.20;;;;;;5018625;28;92754;-67
2022/04/29 08:54:04;;;;;;;20.17;10.17;;;20.30;58.30;;;;;;5018601;28;91988;-67
2022/04/29 08:59:19;;;;;;;21.85;12.85;;;20.20;58.80;;;;;;5018438;28;92956;-66
2022/04/29 09:01:47;;;;;;;22.77;12.00;;;20.10;57.60;;;;;;5018272;28;92321;-66
2022/04/29 09:04:12;;;;;;;23.60;13.02;;;20.00;57.40;;;;;;5018403;28;92956;-67
2022/04/29 09:06:51;;;;;;;26.48;13.48;;;20.10;57.90;;;;;;5016186;28;92830;-66
2022/04/29 09:09:22;;;;;;;22.92;13.35;;;20.10;59.30;;;;;;5017718;28;92681;-66
2022/04/29 09:11:48;;;;;;;19.58;12.43;;;20.10;59.00;;;;;;5017943;28;92756;-67
2022/04/29 09:14:25;;;;;;;21.88;12.80;;;20.10;57.80;;;;;;5017931;28;92255;-66
2022/04/29 09:16:51;;;;;;;21.98;12.18;;;20.00;53.70;;;;;;5018459;28;92401;-65
2022/04/29 09:19:35;;;;;;;24.50;12.75;;;19.90;53.60;;;;;;5017297;28;92681;-67
2022/04/29 09:22:09;;;;;;;30.55;11.32;;;20.00;54.00;;;;;;5016917;28;93315;-67
2022/04/29 09:24:35;;;;;;;21.67;11.02;;;20.10;55.30;;;;;;5017204;28;91970;-66
2022/04/29 09:27:04;;;;;;;23.02;10.32;;;20.10;57.40;;;;;;5013654;28;92115;-65
2022/04/29 09:29:41;;;;;;;22.67;10.68;;;20.20;57.60;;;;;;5023584;28;97179;-67
2022/04/29 09:32:08;;;;;;;21.77;10.15;;;20.10;57.80;;;;;;5035547;28;95280;-67
2022/04/29 09:34:53;;;;;;;19.10;10.77;;;20.20;57.80;;;;;;5029102;28;92458;-66
2022/04/29 09:39:26;;;;;;;22.42;10.98;;;20.20;57.20;;;;;;5023012;28;91972;-66
2022/04/29 09:40:38;;;;;;;21.40;9.90;;;20.20;57.30;;;;;;5014909;28;93819;-67
2022/04/29 09:43:03;;;;;;;25.27;10.27;;;20.20;57.30;;;;;;5013323;28;92905;-66
2022/04/29 09:45:29;;;;;;;25.85;10.27;;;20.20;57.40;;;;;;5017678;28;91892;-68
2022/04/29 09:48:00;;;;;;;23.10;10.13;;;20.20;57.70;;;;;;5017944;28;91237;-67
2022/04/29 09:50:48;;;;;;;22.83;9.70;;;20.20;57.20;;;;;;5017155;28;92642;-67
2022/04/29 09:53:17;;;;;;;19.85;8.65;;;20.20;57.90;;;;;;5017889;28;92748;-65
2022/04/29 09:56:09;;;;;;;28.50;9.75;;;20.20;58.00;;;;;;5018188;28;93496;-66
2022/04/29 09:58:35;;;;;;;23.45;8.65;;;20.30;58.60;;;;;;5017550;28;92060;-65
2022/04/29 10:01:04;;;;;;;18.55;9.13;;;20.30;58.40;;;;;;5017189;28;93180;-65
2022/04/29 10:03:30;;;;;;;18.20;9.00;;;20.30;58.70;;;;;;5015491;28;95741;-65
2022/04/29 10:06:00;;;;;;;23.83;9.02;;;20.30;58.60;;;;;;5018153;28;92227;-65
2022/04/29 10:08:26;;;;;;;18.02;8.48;;;20.30;58.70;;;;;;5018393;28;92034;-65
2022/04/29 10:10:55;;;;;;;21.83;8.73;;;20.30;58.70;;;;;;5018013;28;93041;-66
2022/04/29 10:13:23;;;;;;;14.97;7.63;;;20.30;58.60;;;;;;5018309;28;92912;-65
2022/04/29 10:15:50;;;;;;;15.40;7.15;;;20.30;58.70;;;;;;5016569;28;92446;-65
2022/04/29 10:21:15;;;;;;;20.15;7.68;;;20.30;58.90;;;;;;5016749;28;93225;-65
2022/04/29 10:23:42;;;;;;;;;;;20.30;59.10;;;;;;5018550;28;94055;-65
2022/04/29 10:26:09;;;;;;;24.60;7.65;;;20.30;59.50;;;;;;5019767;28;92039;-65
2022/04/29 10:28:35;;;;;;;17.73;7.13;;;20.30;59.70;;;;;;5017726;28;92602;-65
2022/04/29 10:31:06;;;;;;;16.42;7.00;;;20.40;59.90;;;;;;5016777;28;92537;-66
2022/04/29 10:33:32;;;;;;;17.05;6.70;;;20.30;59.90;;;;;;5016457;28;92841;-66
2022/04/29 10:36:06;;;;;;;16.75;7.15;;;20.30;60.30;;;;;;5016916;28;92269;-65
2022/04/29 10:38:39;;;;;;;18.77;7.05;;;20.30;60.50;;;;;;5015078;28;91624;-65
2022/04/29 10:41:16;;;;;;;16.13;5.90;;;20.40;61.20;;;;;;5026692;28;92582;-65
2022/04/29 10:43:46;;;;;;;11.43;5.65;;;20.40;58.40;;;;;;5036407;28;92803;-65
2022/04/29 10:46:13;;;;;;;14.13;6.57;;;20.40;59.00;;;;;;5036949;28;93051;-65
2022/04/29 10:48:40;;;;;;;19.70;7.65;;;20.30;59.60;;;;;;5037944;28;91934;-64
2022/04/29 10:51:40;;;;;;;14.15;7.10;;;20.30;63.80;;;;;;5036659;27;93106;-65
2022/04/29 10:54:06;;;;;;;17.75;6.90;;;20.30;69.80;;;;;;5025486;27;94966;-65
2022/04/29 10:56:31;;;;;;;14.40;7.78;;;20.30;67.10;;;;;;5005278;28;92422;-65
2022/04/29 10:59:09;;;;;;;16.27;8.27;;;20.30;70.70;;;;;;5017270;28;92467;-65
2022/04/29 11:01:36;;;;;;;15.85;8.65;;;20.30;64.80;;;;;;5016427;28;93229;-65
2022/04/29 11:04:06;;;;;;;15.80;8.98;;;20.30;60.60;;;;;;5024119;28;93340;-65
2022/04/29 11:06:41;;;;;;;17.67;9.25;;;20.30;58.90;;;;;;5036288;27;92062;-65
2022/04/29 11:09:34;;;;;;;15.07;9.23;;;20.30;58.30;;;;;;5007860;28;92062;-65
2022/04/29 11:12:00;;;;;;;16.05;8.05;;;20.20;59.30;;;;;;5004974;28;97085;-64
2022/04/29 11:14:26;;;;;;;12.70;7.38;;;20.20;61.40;;;;;;5006801;28;93354;-65
2022/04/29 11:16:53;;;;;;;12.90;7.10;;;20.20;61.50;;;;;;5008507;28;92173;-65
2022/04/29 11:19:20;;;;;;;14.18;7.30;;;20.30;61.60;;;;;;5007623;28;92067;-65
2022/04/29 11:24:45;;;;;;;14.30;7.63;;;20.20;62.40;;;;;;5007337;28;91982;-65
2022/04/29 11:27:11;;;;;;;12.43;6.07;;;20.30;61.80;;;;;;5006776;28;92011;-65
2022/04/29 11:29:47;;;;;;;16.02;7.30;;;20.30;62.20;;;;;;5008753;28;91794;-65
2022/04/29 11:32:13;;;;;;;15.50;7.22;;;20.20;62.10;;;;;;5007578;28;93873;-65
2022/04/29 11:34:55;;;;;;;15.63;7.28;;;20.30;62.30;;;;;;5007221;28;92000;-65
2022/04/29 11:37:33;;;;;;;17.63;8.32;;;20.30;62.20;;;;;;5007104;28;92877;-66
2022/04/29 11:40:08;;;;;;;14.82;7.22;;;20.30;63.50;;;;;;5006660;28;92214;-66
2022/04/29 11:42:34;;;;;;;12.27;7.10;;;20.20;62.30;;;;;;5006917;28;92968;-65
2022/04/29 11:45:08;;;;;;;13.80;7.43;;;20.30;62.60;;;;;;5003798;28;93748;-66
2022/04/29 11:47:34;;;;;;;13.32;6.95;;;20.30;62.40;;;;;;5008075;28;92182;-65
2022/04/29 11:50:03;;;;;;;18.98;7.43;;;20.30;62.30;;;;;;5006367;28;92020;-65
2022/04/29 11:52:30;;;;;;;18.38;8.50;;;20.30;61.90;;;;;;5006652;28;93194;-65
2022/04/29 11:55:05;;;;;;;19.58;7.78;;;20.30;60.00;;;;;;5006720;28;92797;-65
2022/04/29 11:57:42;;;;;;;15.80;7.90;;;20.30;61.30;;;;;;5007171;28;91945;-65
2022/04/29 12:00:08;;;;;;;19.80;8.68;;;20.30;61.30;;;;;;5007111;28;92337;-65
2022/04/29 12:02:34;;;;;;;17.65;8.52;;;20.30;59.80;;;;;;5003391;28;96117;-65
2022/04/29 12:05:02;;;;;;;19.27;7.47;;;20.30;59.80;;;;;;5004718;28;93184;-65
2022/04/29 12:07:37;;;;;;;13.82;8.00;;;20.30;60.40;;;;;;5006162;28;92015;-65
2022/04/29 12:10:26;;;;;;;15.50;7.78;;;20.20;60.50;;;;;;5005602;28;91890;-65
2022/04/29 12:13:04;;;;;;;12.65;6.95;;;20.30;60.70;;;;;;5004336;28;95119;-66
2022/04/29 12:15:37;;;;;;;10.50;6.70;;;20.30;60.90;;;;;;5006325;28;92805;-65
2022/04/29 12:18:06;;;;;;;13.48;7.47;;;20.30;61.00;;;;;;5007564;28;92031;-65
2022/04/29 12:20:32;;;;;;;15.20;6.50;;;20.30;60.60;;;;;;5006673;28;92017;-65
2022/04/29 12:23:13;;;;;;;12.07;7.18;;;20.30;60.80;;;;;;5007610;28;92710;-65
2022/04/29 12:25:42;;;;;;;11.57;7.05;;;20.30;60.80;;;;;;5008888;28;96342;-65
2022/04/29 12:28:16;;;;;;;15.00;7.00;;;20.30;60.90;;;;;;5012393;28;92947;-65
2022/04/29 12:36:50;;;;;;;10.55;6.65;;;20.30;61.00;;;;;;5016468;28;91939;-65
2022/04/29 12:39:21;;;;;;;13.30;6.68;;;20.30;61.00;;;;;;5015956;28;92534;-65
2022/04/29 12:42:07;;;;;;;19.80;7.15;;;20.30;61.00;;;;;;5015554;28;92519;-65
2022/04/29 12:47:40;;;;;;;15.45;7.70;;;20.30;60.80;;;;;;5002534;28;91838;-65
2022/04/29 12:50:28;;;;;;;14.32;7.00;;;20.30;60.60;;;;;;5003545;28;92888;-65
2022/04/29 12:53:02;;;;;;;8.32;6.28;;;20.30;60.70;;;;;;5005769;28;92315;-65
2022/04/29 12:55:46;;;;;;;12.13;6.15;;;20.30;60.90;;;;;;5007084;28;95209;-65
2022/04/29 12:58:19;;;;;;;11.40;5.63;;;20.30;61.00;;;;;;5019927;28;92373;-66
2022/04/29 13:00:58;;;;;;;12.65;6.45;;;20.30;60.80;;;;;;5014622;28;92390;-66
2022/04/29 13:03:31;;;;;;;11.23;5.95;;;20.30;60.90;;;;;;5006756;28;91945;-64
2022/04/29 13:06:04;;;;;;;8.93;6.00;;;20.30;61.00;;;;;;5012620;28;95476;-65
2022/04/29 13:08:30;;;;;;;9.30;5.70;;;20.30;60.90;;;;;;5014244;28;93190;-67
2022/04/29 13:11:03;;;;;;;11.50;6.05;;;20.30;60.70;;;;;;5015620;28;91917;-66
2022/04/29 13:13:29;;;;;;;12.10;5.68;;;20.30;60.70;;;;;;5009472;28;91352;-66
2022/04/29 13:15:55;;;;;;;13.20;6.30;;;20.30;60.90;;;;;;5037990;28;92577;-66
2022/04/29 13:18:24;;;;;;;9.40;5.00;;;20.30;60.90;;;;;;5038046;28;92434;-66
2022/04/29 13:20:50;;;;;;;15.82;5.78;;;20.30;61.00;;;;;;5036509;28;92888;-65